Time;durP1;ratioP1;P1;durP2;ratioP2;P2;SDS_P1;SDS_P2;PMS_P1;PMS_P2;Temp;Humidity;BMP_temperature;BMP_pressure;BME280_temperature;BME280_humidity;BME280_pressure;Samples;Min_cycle;Max_cycle;Signal;HPM_P1;HPM_P2
2023/12/30 00:02:04;;;;;;;13.20;3.85;;;;;;;;;;5018337;28;20185;-75
2023/12/30 00:04:29;;;;;;;8.17;2.40;;;;;;;;;;5024267;28;20205;-75
2023/12/30 00:06:54;;;;;;;7.00;1.47;;;;;;;;;;5027862;28;20210;-75
2023/12/30 00:09:20;;;;;;;12.07;2.35;;;;;;;;;;5028538;28;20326;-75
2023/12/30 00:11:45;;;;;;;9.65;1.92;;;;;;;;;;5028268;28;20308;-75
2023/12/30 00:14:11;;;;;;;8.57;1.33;;;;;;;;;;5009781;28;20213;-75
2023/12/30 00:16:39;;;;;;;10.40;1.60;;;;;;;;;;5017260;28;20209;-75
2023/12/30 00:19:05;;;;;;;14.90;2.33;;;;;;;;;;5011021;28;20213;-75
2023/12/30 00:21:31;;;;;;;6.15;1.17;;;;;;;;;;5004045;28;20589;-75
2023/12/30 00:23:56;;;;;;;9.02;1.50;;;;;;;;;;5007470;28;20198;-75
2023/12/30 00:26:26;;;;;;;9.52;1.45;;;;;;;;;;4992122;28;20310;-75
2023/12/30 00:28:52;;;;;;;8.23;1.55;;;;;;;;;;5029476;28;20264;-75
2023/12/30 00:31:28;;;;;;;8.20;1.48;;;;;;;;;;5023835;28;20267;-75
2023/12/30 00:33:59;;;;;;;7.45;1.40;;;;;;;;;;5018607;28;20268;-75
2023/12/30 00:36:28;;;;;;;11.65;1.73;;;;;;;;;;5026555;28;20182;-75
2023/12/30 00:38:54;;;;;;;10.63;1.37;;;;;;;;;;5026947;28;20186;-75
2023/12/30 00:41:21;;;;;;;9.13;1.75;;;;;;;;;;5029305;28;20262;-76
2023/12/30 00:43:46;;;;;;;8.85;1.80;;;;;;;;;;5019897;28;20268;-75
2023/12/30 00:46:12;;;;;;;7.10;1.63;;;;;;;;;;5013383;28;20265;-75
2023/12/30 00:48:37;;;;;;;11.65;1.50;;;;;;;;;;5023984;28;20210;-75
2023/12/30 00:51:03;;;;;;;12.65;1.75;;;;;;;;;;5016035;28;20255;-75
2023/12/30 00:53:29;;;;;;;7.47;1.33;;;;;;;;;;5023562;28;20196;-75
2023/12/30 00:55:55;;;;;;;11.30;1.45;;;;;;;;;;5004839;28;20225;-75
2023/12/30 00:58:21;;;;;;;13.37;1.77;;;;;;;;;;4995488;28;20209;-75
2023/12/30 01:00:46;;;;;;;9.67;1.63;;;;;;;;;;5025328;28;20240;-75
2023/12/30 01:03:12;;;;;;;8.70;1.50;;;;;;;;;;5026012;28;20190;-74
2023/12/30 01:05:37;;;;;;;7.23;1.50;;;;;;;;;;5027973;28;20269;-75
2023/12/30 01:08:03;;;;;;;7.22;1.52;;;;;;;;;;5025236;28;20218;-75
2023/12/30 01:10:28;;;;;;;12.00;1.80;;;;;;;;;;5028042;28;20186;-75
2023/12/30 01:12:54;;;;;;;5.07;1.33;;;;;;;;;;5028658;28;20698;-75
2023/12/30 01:15:19;;;;;;;8.93;1.40;;;;;;;;;;5028344;28;20190;-75
2023/12/30 01:17:45;;;;;;;8.37;1.60;;;;;;;;;;5023130;28;20757;-75
2023/12/30 01:20:10;;;;;;;11.50;1.40;;;;;;;;;;5023877;28;20244;-75
2023/12/30 01:22:36;;;;;;;11.37;1.70;;;;;;;;;;5018829;28;20190;-75
2023/12/30 01:25:02;;;;;;;10.20;1.50;;;;;;;;;;5010066;28;20190;-75
2023/12/30 01:27:27;;;;;;;16.30;1.50;;;;;;;;;;5027143;28;20225;-75
2023/12/30 01:29:53;;;;;;;10.90;1.50;;;;;;;;;;5026712;28;20194;-75
2023/12/30 01:32:18;;;;;;;7.93;1.80;;;;;;;;;;5027328;28;20642;-75
2023/12/30 01:34:44;;;;;;;8.27;1.90;;;;;;;;;;5004936;28;20190;-75
2023/12/30 01:37:10;;;;;;;19.40;1.90;;;;;;;;;;5005650;28;20183;-76
2023/12/30 01:39:36;;;;;;;13.67;1.33;;;;;;;;;;5027333;28;20194;-75
2023/12/30 01:42:01;;;;;;;7.93;1.25;;;;;;;;;;5020452;28;20194;-75
2023/12/30 01:44:27;;;;;;;8.13;1.87;;;;;;;;;;5010996;28;20243;-75
2023/12/30 01:46:52;;;;;;;8.40;1.50;;;;;;;;;;5008646;28;20202;-75
2023/12/30 01:49:18;;;;;;;12.60;2.03;;;;;;;;;;5009591;28;20198;-75
2023/12/30 01:51:45;;;;;;;12.33;1.63;;;;;;;;;;5010537;28;20252;-75
2023/12/30 01:54:10;;;;;;;15.38;1.67;;;;;;;;;;5022551;28;20187;-75
2023/12/30 01:56:36;;;;;;;11.47;1.70;;;;;;;;;;5006917;28;20240;-75
2023/12/30 01:59:02;;;;;;;8.00;1.60;;;;;;;;;;5008831;28;20186;-75
2023/12/30 02:01:28;;;;;;;9.27;1.57;;;;;;;;;;5008836;28;20208;-75
2023/12/30 02:03:54;;;;;;;8.03;1.50;;;;;;;;;;5020537;28;20646;-75
2023/12/30 02:06:20;;;;;;;9.47;1.83;;;;;;;;;;5024080;28;20214;-75
2023/12/30 02:08:46;;;;;;;10.00;1.67;;;;;;;;;;5024152;28;20190;-75
2023/12/30 02:11:12;;;;;;;7.73;1.40;;;;;;;;;;5021067;28;20242;-75
2023/12/30 02:13:41;;;;;;;9.17;1.17;;;;;;;;;;5027899;28;20186;-76
2023/12/30 02:16:07;;;;;;;10.13;1.30;;;;;;;;;;5020344;28;20194;-75
2023/12/30 02:18:32;;;;;;;12.53;1.47;;;;;;;;;;5013764;28;20597;-75
2023/12/30 02:20:58;;;;;;;14.45;1.50;;;;;;;;;;5019515;28;20254;-75
2023/12/30 02:23:23;;;;;;;9.07;1.70;;;;;;;;;;5010061;28;20243;-75
2023/12/30 02:25:50;;;;;;;10.40;1.20;;;;;;;;;;4993252;28;20229;-76
2023/12/30 02:28:16;;;;;;;13.17;1.60;;;;;;;;;;5006409;28;20660;-75
2023/12/30 02:30:42;;;;;;;12.53;1.40;;;;;;;;;;5005733;28;20186;-75
2023/12/30 02:33:07;;;;;;;11.37;1.70;;;;;;;;;;5010157;28;20647;-75
2023/12/30 02:35:33;;;;;;;11.07;1.40;;;;;;;;;;5010372;28;20285;-75
2023/12/30 02:37:58;;;;;;;11.00;1.70;;;;;;;;;;5026113;28;20205;-75
2023/12/30 02:40:24;;;;;;;9.80;1.45;;;;;;;;;;5025638;28;20646;-76
2023/12/30 02:42:49;;;;;;;13.20;1.58;;;;;;;;;;5024528;28;20557;-75
2023/12/30 02:45:15;;;;;;;11.63;1.95;;;;;;;;;;5010513;28;20194;-76
2023/12/30 02:47:40;;;;;;;11.00;1.30;;;;;;;;;;5027508;28;20209;-76
2023/12/30 02:50:06;;;;;;;13.67;1.30;;;;;;;;;;5009476;28;20187;-75
2023/12/30 02:52:32;;;;;;;19.63;1.90;;;;;;;;;;5009329;28;20205;-76
2023/12/30 02:54:59;;;;;;;8.10;1.30;;;;;;;;;;5026259;28;20202;-75
2023/12/30 02:57:25;;;;;;;8.70;1.83;;;;;;;;;;5002481;28;20289;-76
2023/12/30 02:59:51;;;;;;;11.63;1.30;;;;;;;;;;5006458;28;20244;-76
2023/12/30 03:02:16;;;;;;;8.93;1.23;;;;;;;;;;5013402;28;20194;-76
2023/12/30 03:04:42;;;;;;;10.83;1.33;;;;;;;;;;5030625;28;20194;-76
2023/12/30 03:07:07;;;;;;;12.03;1.40;;;;;;;;;;5010980;28;20416;-77
2023/12/30 03:09:33;;;;;;;11.77;1.07;;;;;;;;;;5030814;28;20194;-76
2023/12/30 03:11:59;;;;;;;10.23;1.43;;;;;;;;;;5025108;28;20195;-76
2023/12/30 03:14:24;;;;;;;7.30;1.17;;;;;;;;;;5017852;28;20255;-75
2023/12/30 03:16:50;;;;;;;13.57;1.10;;;;;;;;;;5002799;28;20186;-76
2023/12/30 03:19:15;;;;;;;10.57;1.63;;;;;;;;;;5011498;28;20209;-75
2023/12/30 03:21:41;;;;;;;11.63;1.17;;;;;;;;;;5009135;28;20621;-75
2023/12/30 03:24:06;;;;;;;7.63;1.23;;;;;;;;;;5011865;28;20191;-75
2023/12/30 03:26:32;;;;;;;9.20;1.10;;;;;;;;;;5020307;28;20238;-75
2023/12/30 03:28:57;;;;;;;11.67;1.27;;;;;;;;;;5020094;28;20196;-75
2023/12/30 03:31:27;;;;;;;9.00;1.30;;;;;;;;;;5007976;28;20190;-75
2023/12/30 03:33:53;;;;;;;13.53;1.23;;;;;;;;;;5004689;28;20285;-75
2023/12/30 03:36:19;;;;;;;12.83;1.30;;;;;;;;;;5029715;28;20178;-75
2023/12/30 03:38:47;;;;;;;14.30;1.30;;;;;;;;;;5012746;28;20199;-76
2023/12/30 03:41:13;;;;;;;6.77;0.90;;;;;;;;;;5004861;28;20179;-75
2023/12/30 03:43:39;;;;;;;11.27;1.57;;;;;;;;;;5029574;28;20553;-75
2023/12/30 03:46:05;;;;;;;14.80;1.87;;;;;;;;;;5012548;28;20248;-75
2023/12/30 03:48:30;;;;;;;7.70;1.20;;;;;;;;;;5028507;28;20217;-75
2023/12/30 03:50:56;;;;;;;8.83;1.30;;;;;;;;;;5030473;28;20282;-75
2023/12/30 03:53:21;;;;;;;7.90;1.10;;;;;;;;;;5011864;28;20265;-75
2023/12/30 03:55:47;;;;;;;9.03;1.60;;;;;;;;;;5030119;28;20197;-75
2023/12/30 03:58:12;;;;;;;9.07;1.63;;;;;;;;;;5029586;28;20182;-76
2023/12/30 04:00:38;;;;;;;9.77;1.63;;;;;;;;;;5008597;28;20194;-75
2023/12/30 04:03:03;;;;;;;8.40;1.20;;;;;;;;;;5028601;28;20276;-75
2023/12/30 04:05:29;;;;;;;11.63;1.87;;;;;;;;;;5006883;28;20634;-75
2023/12/30 04:07:54;;;;;;;11.27;1.70;;;;;;;;;;5021356;28;20692;-75
2023/12/30 04:10:20;;;;;;;13.03;1.47;;;;;;;;;;5029306;28;20201;-75
2023/12/30 04:12:45;;;;;;;15.13;2.85;;;;;;;;;;5028233;28;20186;-75
2023/12/30 04:15:10;;;;;;;11.40;1.20;;;;;;;;;;5027940;28;20182;-75
2023/12/30 04:17:37;;;;;;;10.77;1.50;;;;;;;;;;5028220;28;20182;-75
2023/12/30 04:20:03;;;;;;;8.90;1.20;;;;;;;;;;5024605;28;20230;-75
2023/12/30 04:22:28;;;;;;;8.27;1.30;;;;;;;;;;5028869;28;20201;-76
2023/12/30 04:24:54;;;;;;;7.60;1.53;;;;;;;;;;5024388;28;20669;-75
2023/12/30 04:27:20;;;;;;;11.53;1.17;;;;;;;;;;5027827;28;20202;-75
2023/12/30 04:29:45;;;;;;;7.10;1.10;;;;;;;;;;5038261;28;20193;-75
2023/12/30 04:32:11;;;;;;;5.83;1.00;;;;;;;;;;4993962;28;20194;-75
2023/12/30 04:34:37;;;;;;;12.23;1.23;;;;;;;;;;5026157;28;20502;-75
2023/12/30 04:37:03;;;;;;;9.93;0.95;;;;;;;;;;5024502;28;20269;-75
2023/12/30 04:39:28;;;;;;;7.80;1.03;;;;;;;;;;5008544;28;20190;-75
2023/12/30 04:41:54;;;;;;;7.38;1.08;;;;;;;;;;5027779;28;20186;-75
2023/12/30 04:44:19;;;;;;;11.03;1.47;;;;;;;;;;5011420;28;20319;-76
2023/12/30 04:46:44;;;;;;;13.60;1.40;;;;;;;;;;5029044;28;20202;-75
2023/12/30 04:49:11;;;;;;;10.40;1.70;;;;;;;;;;5035360;28;20196;-75
2023/12/30 04:51:37;;;;;;;5.10;1.07;;;;;;;;;;5031300;28;20186;-75
2023/12/30 04:54:03;;;;;;;10.27;1.50;;;;;;;;;;5010356;28;20194;-75
2023/12/30 04:56:28;;;;;;;12.07;1.73;;;;;;;;;;5011271;28;20665;-75
2023/12/30 04:58:54;;;;;;;11.95;1.30;;;;;;;;;;5028933;28;20217;-75
2023/12/30 05:01:19;;;;;;;9.15;1.63;;;;;;;;;;5010836;28;20183;-75
2023/12/30 05:03:45;;;;;;;12.85;1.30;;;;;;;;;;5011355;28;20209;-75
2023/12/30 05:06:21;;;;;;;9.47;1.30;;;;;;;;;;5026743;28;20671;-74
2023/12/30 05:08:50;;;;;;;6.10;0.98;;;;;;;;;;5005943;28;20276;-76
2023/12/30 05:11:15;;;;;;;11.03;1.70;;;;;;;;;;5017737;28;20265;-76
2023/12/30 05:13:42;;;;;;;8.50;1.30;;;;;;;;;;5022928;28;20206;-75
2023/12/30 05:16:08;;;;;;;9.77;1.37;;;;;;;;;;5009680;28;20204;-76
2023/12/30 05:18:33;;;;;;;13.43;1.47;;;;;;;;;;5010687;28;20217;-75
2023/12/30 05:20:59;;;;;;;7.80;1.20;;;;;;;;;;5004848;28;20264;-76
2023/12/30 05:23:24;;;;;;;10.75;1.23;;;;;;;;;;5010441;28;20190;-76
2023/12/30 05:25:50;;;;;;;10.70;1.57;;;;;;;;;;5028346;28;20194;-76
2023/12/30 05:28:15;;;;;;;7.00;1.15;;;;;;;;;;5022387;28;20226;-76
2023/12/30 05:30:40;;;;;;;9.77;1.30;;;;;;;;;;5009105;28;20190;-76
2023/12/30 05:33:07;;;;;;;11.00;1.35;;;;;;;;;;5009572;28;20263;-75
2023/12/30 05:35:33;;;;;;;7.50;1.17;;;;;;;;;;5017817;28;20197;-75
2023/12/30 05:37:58;;;;;;;10.25;1.35;;;;;;;;;;5028579;28;20190;-75
2023/12/30 05:40:24;;;;;;;12.38;1.38;;;;;;;;;;5015876;28;20269;-75
2023/12/30 05:42:49;;;;;;;9.98;1.30;;;;;;;;;;5027708;28;20193;-75
2023/12/30 05:45:15;;;;;;;8.80;1.07;;;;;;;;;;5004443;28;20233;-75
2023/12/30 05:47:41;;;;;;;13.00;1.87;;;;;;;;;;5019192;28;20214;-75
2023/12/30 05:50:07;;;;;;;11.17;1.47;;;;;;;;;;5025093;28;20577;-75
2023/12/30 05:52:32;;;;;;;10.03;1.20;;;;;;;;;;5025122;28;20626;-76
2023/12/30 05:54:57;;;;;;;10.30;1.70;;;;;;;;;;5009979;28;20236;-76
2023/12/30 05:57:23;;;;;;;9.18;1.30;;;;;;;;;;5024071;28;20190;-76
2023/12/30 05:59:48;;;;;;;6.87;1.40;;;;;;;;;;5022429;28;20236;-75
2023/12/30 06:02:14;;;;;;;6.45;1.67;;;;;;;;;;5019850;28;20535;-75
2023/12/30 06:04:41;;;;;;;11.43;1.60;;;;;;;;;;5022995;28;20194;-76
2023/12/30 06:07:07;;;;;;;15.23;1.70;;;;;;;;;;5008948;28;20210;-75
2023/12/30 06:09:32;;;;;;;11.27;1.83;;;;;;;;;;5021337;28;20253;-75
2023/12/30 06:11:58;;;;;;;15.00;1.70;;;;;;;;;;5002886;28;20867;-75
2023/12/30 06:14:23;;;;;;;14.45;1.70;;;;;;;;;;5018501;28;20735;-75
2023/12/30 06:16:49;;;;;;;11.95;2.15;;;;;;;;;;5027675;28;20217;-75
2023/12/30 06:19:16;;;;;;;9.93;1.70;;;;;;;;;;5023515;28;20704;-76
2023/12/30 06:21:42;;;;;;;15.40;1.70;;;;;;;;;;5022348;28;20282;-75
2023/12/30 06:24:08;;;;;;;15.57;1.90;;;;;;;;;;5020681;28;20186;-76
2023/12/30 06:26:37;;;;;;;10.53;1.67;;;;;;;;;;5007587;28;20216;-75
2023/12/30 06:29:02;;;;;;;13.00;1.40;;;;;;;;;;5023634;28;20277;-75
2023/12/30 06:31:27;;;;;;;7.43;1.27;;;;;;;;;;5020422;28;20269;-75
2023/12/30 06:33:53;;;;;;;9.55;1.80;;;;;;;;;;4990893;28;20198;-76
2023/12/30 06:36:23;;;;;;;14.77;1.90;;;;;;;;;;5014063;28;20240;-75
2023/12/30 06:38:48;;;;;;;11.80;1.50;;;;;;;;;;5013948;28;20269;-75
2023/12/30 06:41:14;;;;;;;9.30;1.40;;;;;;;;;;5030502;28;20602;-75
2023/12/30 06:43:40;;;;;;;13.07;1.93;;;;;;;;;;5030654;28;20212;-75
2023/12/30 06:46:05;;;;;;;14.10;1.80;;;;;;;;;;5010419;28;20195;-75
2023/12/30 06:48:31;;;;;;;17.10;1.77;;;;;;;;;;5013571;28;20217;-75
2023/12/30 06:50:57;;;;;;;9.80;1.40;;;;;;;;;;5031496;28;20244;-75
2023/12/30 06:53:22;;;;;;;10.60;1.60;;;;;;;;;;5029246;28;20698;-75
2023/12/30 06:55:48;;;;;;;14.80;1.87;;;;;;;;;;5030280;28;20182;-75
2023/12/30 06:58:13;;;;;;;11.33;1.50;;;;;;;;;;5021056;28;20211;-75
2023/12/30 07:00:39;;;;;;;15.15;1.85;;;;;;;;;;5016105;28;20186;-75
2023/12/30 07:03:05;;;;;;;16.20;1.97;;;;;;;;;;5027361;28;20709;-75
2023/12/30 07:05:35;;;;;;;12.97;1.47;;;;;;;;;;5012564;28;20244;-75
2023/12/30 07:08:01;;;;;;;8.70;1.40;;;;;;;;;;5014485;28;20228;-75
2023/12/30 07:10:27;;;;;;;18.73;2.07;;;;;;;;;;5027918;28;20269;-75
2023/12/30 07:12:52;;;;;;;11.77;1.63;;;;;;;;;;5018360;28;20760;-75
2023/12/30 07:15:17;;;;;;;11.50;2.00;;;;;;;;;;5005230;28;20178;-75
2023/12/30 07:17:44;;;;;;;14.40;2.30;;;;;;;;;;5029479;28;20174;-76
2023/12/30 07:20:10;;;;;;;12.15;2.03;;;;;;;;;;5026699;28;20221;-74
2023/12/30 07:22:35;;;;;;;20.53;2.70;;;;;;;;;;4997910;28;20191;-75
2023/12/30 07:25:01;;;;;;;14.47;2.87;;;;;;;;;;5026680;28;20206;-75
2023/12/30 07:27:26;;;;;;;20.37;2.70;;;;;;;;;;5020184;28;20370;-76
2023/12/30 07:29:53;;;;;;;12.90;2.50;;;;;;;;;;4992150;28;20182;-75
2023/12/30 07:32:18;;;;;;;19.57;2.87;;;;;;;;;;5016097;28;20747;-75
2023/12/30 07:34:43;;;;;;;12.77;2.57;;;;;;;;;;5028445;28;20198;-75
2023/12/30 07:37:09;;;;;;;19.53;3.27;;;;;;;;;;5026163;28;20261;-75
2023/12/30 07:39:34;;;;;;;17.17;2.47;;;;;;;;;;5027899;28;20193;-75
2023/12/30 07:42:00;;;;;;;19.27;3.07;;;;;;;;;;4996099;28;20186;-75
2023/12/30 07:44:27;;;;;;;21.77;2.47;;;;;;;;;;5012226;28;20189;-75
2023/12/30 07:46:53;;;;;;;17.20;2.40;;;;;;;;;;5027292;28;20202;-75
2023/12/30 07:49:18;;;;;;;13.93;2.00;;;;;;;;;;5005997;28;20178;-75
2023/12/30 07:51:44;;;;;;;15.63;2.40;;;;;;;;;;5011515;28;20186;-75
2023/12/30 07:54:10;;;;;;;13.50;2.30;;;;;;;;;;5011333;28;21007;-75
2023/12/30 07:56:35;;;;;;;12.23;2.17;;;;;;;;;;5029208;28;20194;-75
2023/12/30 07:59:00;;;;;;;16.70;3.27;;;;;;;;;;5030666;28;20186;-75
2023/12/30 08:01:26;;;;;;;13.17;1.90;;;;;;;;;;5026896;28;20186;-75
2023/12/30 08:03:52;;;;;;;12.47;1.93;;;;;;;;;;5011685;28;20186;-75
2023/12/30 08:06:17;;;;;;;15.50;1.90;;;;;;;;;;5010044;28;20548;-75
2023/12/30 08:08:42;;;;;;;16.77;2.17;;;;;;;;;;5009826;28;20764;-75
2023/12/30 08:11:08;;;;;;;15.83;2.27;;;;;;;;;;5023836;28;20287;-75
2023/12/30 08:13:33;;;;;;;15.60;2.03;;;;;;;;;;5009294;28;20281;-75
2023/12/30 08:15:59;;;;;;;13.87;2.57;;;;;;;;;;5021148;28;20226;-75
2023/12/30 08:18:24;;;;;;;22.83;2.63;;;;;;;;;;4995737;28;20208;-75
2023/12/30 08:20:51;;;;;;;15.37;2.00;;;;;;;;;;5018299;28;20298;-76
2023/12/30 08:23:16;;;;;;;14.47;2.13;;;;;;;;;;5011193;28;20229;-75
2023/12/30 08:25:42;;;;;;;15.70;2.87;;;;;;;;;;5028438;28;20612;-75
2023/12/30 08:28:07;;;;;;;22.13;2.60;;;;;;;;;;5026764;28;20256;-75
2023/12/30 08:30:33;;;;;;;10.10;2.10;;;;;;;;;;4999743;28;20198;-75
2023/12/30 08:33:03;;;;;;;12.27;2.27;;;;;;;;;;5011226;28;20269;-75
2023/12/30 08:35:29;;;;;;;18.53;2.60;;;;;;;;;;5008915;28;20697;-75
2023/12/30 08:37:54;;;;;;;15.97;3.23;;;;;;;;;;5011313;28;20647;-75
2023/12/30 08:40:20;;;;;;;18.53;2.80;;;;;;;;;;5015564;28;20761;-75
2023/12/30 08:42:45;;;;;;;11.90;1.97;;;;;;;;;;5023483;28;20186;-75
2023/12/30 08:45:18;;;;;;;11.67;2.37;;;;;;;;;;5011618;28;20189;-75
2023/12/30 08:47:45;;;;;;;15.53;2.30;;;;;;;;;;5028319;28;20217;-75
2023/12/30 08:50:11;;;;;;;12.10;2.40;;;;;;;;;;5027249;28;20213;-76
2023/12/30 08:52:37;;;;;;;15.23;2.20;;;;;;;;;;5011632;28;20198;-75
2023/12/30 08:55:04;;;;;;;13.20;2.50;;;;;;;;;;5010487;28;20182;-75
2023/12/30 08:57:29;;;;;;;8.97;2.13;;;;;;;;;;5010343;28;20186;-75
2023/12/30 08:59:54;;;;;;;13.60;2.67;;;;;;;;;;5017642;28;20205;-75
2023/12/30 09:02:20;;;;;;;17.93;2.50;;;;;;;;;;5009813;28;20182;-75
2023/12/30 09:04:45;;;;;;;31.80;3.50;;;;;;;;;;5028954;28;20283;-75
2023/12/30 09:07:11;;;;;;;13.33;2.23;;;;;;;;;;5008673;28;20561;-75
2023/12/30 09:09:36;;;;;;;11.20;2.67;;;;;;;;;;5022207;28;20200;-75
2023/12/30 09:12:02;;;;;;;16.43;2.63;;;;;;;;;;5027242;28;20264;-75
2023/12/30 09:14:27;;;;;;;17.10;2.93;;;;;;;;;;5020463;28;20200;-75
2023/12/30 09:16:53;;;;;;;13.40;2.93;;;;;;;;;;5026906;28;20201;-76
2023/12/30 09:19:19;;;;;;;20.60;3.87;;;;;;;;;;5029199;28;20209;-75
2023/12/30 09:21:44;;;;;;;26.77;4.83;;;;;;;;;;5026247;28;20549;-75
2023/12/30 09:24:10;;;;;;;14.17;3.47;;;;;;;;;;5023538;28;20238;-75
2023/12/30 09:26:36;;;;;;;14.70;3.77;;;;;;;;;;5010618;28;20194;-75
2023/12/30 09:29:01;;;;;;;18.80;3.50;;;;;;;;;;5024897;28;20240;-75
2023/12/30 09:31:27;;;;;;;21.00;4.63;;;;;;;;;;5028214;28;20197;-75
2023/12/30 09:33:52;;;;;;;28.00;4.97;;;;;;;;;;5005913;28;20207;-75
2023/12/30 09:36:18;;;;;;;24.77;4.57;;;;;;;;;;5024515;28;20247;-75
2023/12/30 09:38:44;;;;;;;19.63;4.27;;;;;;;;;;5022501;28;20713;-75
2023/12/30 09:41:09;;;;;;;17.07;3.70;;;;;;;;;;5026164;28;20214;-75
2023/12/30 09:43:36;;;;;;;15.30;4.13;;;;;;;;;;5005582;28;20244;-75
2023/12/30 09:46:02;;;;;;;15.80;3.63;;;;;;;;;;5018539;28;20530;-76
2023/12/30 09:48:29;;;;;;;15.77;3.47;;;;;;;;;;5015053;28;20218;-75
2023/12/30 09:50:56;;;;;;;17.70;3.70;;;;;;;;;;5040130;28;20814;-75
2023/12/30 09:53:22;;;;;;;19.43;4.10;;;;;;;;;;5031925;28;20190;-75
2023/12/30 09:55:52;;;;;;;11.97;3.40;;;;;;;;;;5037919;28;20196;-75
2023/12/30 09:58:19;;;;;;;19.63;3.90;;;;;;;;;;5038496;28;20207;-75
2023/12/30 10:00:45;;;;;;;18.97;3.67;;;;;;;;;;5015304;28;20185;-76
2023/12/30 10:03:11;;;;;;;23.83;4.28;;;;;;;;;;5039531;28;20555;-75
2023/12/30 10:05:37;;;;;;;14.43;3.57;;;;;;;;;;5036938;28;20359;-75
2023/12/30 10:08:03;;;;;;;14.77;3.30;;;;;;;;;;5035262;28;20757;-75
2023/12/30 10:10:51;;;;;;;11.82;3.20;;;;;;;;;;5017581;28;20190;-76
2023/12/30 10:13:21;;;;;;;19.37;3.97;;;;;;;;;;5045395;28;20918;-75
2023/12/30 10:15:47;;;;;;;17.60;3.80;;;;;;;;;;5038808;28;20518;-75
2023/12/30 10:18:15;;;;;;;21.13;3.65;;;;;;;;;;5023240;28;20229;-74
2023/12/30 10:20:42;;;;;;;20.73;3.67;;;;;;;;;;5009887;28;20245;-75
2023/12/30 10:23:07;;;;;;;15.02;3.47;;;;;;;;;;5010715;28;20205;-75
2023/12/30 10:25:33;;;;;;;16.90;3.30;;;;;;;;;;5011502;28;20194;-74
2023/12/30 10:27:58;;;;;;;15.75;3.22;;;;;;;;;;4996946;28;20245;-74
2023/12/30 10:30:24;;;;;;;17.95;3.40;;;;;;;;;;4985001;28;20233;-75
2023/12/30 10:32:49;;;;;;;13.25;3.92;;;;;;;;;;5012197;28;20587;-75
2023/12/30 10:35:15;;;;;;;15.70;3.17;;;;;;;;;;5003572;28;20180;-75
2023/12/30 10:37:44;;;;;;;16.60;3.30;;;;;;;;;;4998688;28;20977;-75
2023/12/30 10:40:10;;;;;;;15.77;3.20;;;;;;;;;;5025549;28;20194;-75
2023/12/30 10:42:40;;;;;;;18.77;3.15;;;;;;;;;;5009529;28;20186;-74
2023/12/30 10:45:06;;;;;;;18.13;3.47;;;;;;;;;;5009268;28;20238;-76
2023/12/30 10:47:35;;;;;;;21.38;3.30;;;;;;;;;;5011484;28;20234;-75
2023/12/30 10:50:04;;;;;;;16.77;3.78;;;;;;;;;;5009497;28;20191;-75
2023/12/30 10:52:32;;;;;;;16.25;3.53;;;;;;;;;;5008273;28;20194;-75
2023/12/30 10:55:09;;;;;;;16.85;3.78;;;;;;;;;;5022555;28;20316;-75
2023/12/30 10:57:37;;;;;;;19.90;3.97;;;;;;;;;;5001413;28;20272;-75
2023/12/30 11:00:09;;;;;;;20.95;3.70;;;;;;;;;;5010568;28;20198;-75
2023/12/30 11:02:35;;;;;;;12.75;3.38;;;;;;;;;;5026210;28;20186;-75
2023/12/30 11:05:05;;;;;;;17.15;3.55;;;;;;;;;;5009403;28;20183;-74
2023/12/30 11:07:31;;;;;;;16.65;4.95;;;;;;;;;;5009625;28;20215;-75
2023/12/30 11:09:57;;;;;;;18.58;4.47;;;;;;;;;;5004098;28;20342;-74
2023/12/30 11:12:26;;;;;;;20.83;7.20;;;;;;;;;;5005709;28;20179;-74
2023/12/30 11:14:52;;;;;;;19.05;7.75;;;;;;;;;;5023571;28;20276;-74
2023/12/30 11:17:43;;;;;;;14.45;3.90;;;;;;;;;;4995812;28;20650;-75
2023/12/30 11:20:24;;;;;;;13.52;3.10;;;;;;;;;;5005068;28;20295;-74
2023/12/30 11:22:51;;;;;;;16.10;4.05;;;;;;;;;;5008667;28;20210;-74
2023/12/30 11:25:17;;;;;;;19.30;3.72;;;;;;;;;;5009731;28;20195;-74
2023/12/30 11:27:48;;;;;;;19.67;3.97;;;;;;;;;;5002923;28;20301;-74
2023/12/30 11:30:17;;;;;;;15.82;3.45;;;;;;;;;;5006611;28;20182;-75
2023/12/30 11:32:44;;;;;;;16.45;2.92;;;;;;;;;;5013292;28;20182;-76
2023/12/30 11:35:12;;;;;;;14.13;2.67;;;;;;;;;;5026847;28;20293;-75
2023/12/30 11:37:40;;;;;;;14.18;2.90;;;;;;;;;;5003078;28;20235;-75
2023/12/30 11:40:09;;;;;;;16.75;3.40;;;;;;;;;;5002812;28;20187;-74
2023/12/30 11:42:35;;;;;;;14.57;3.38;;;;;;;;;;5004559;28;20654;-75
2023/12/30 11:45:00;;;;;;;14.73;3.17;;;;;;;;;;5008724;28;20285;-76
2023/12/30 11:47:28;;;;;;;17.05;3.30;;;;;;;;;;5015751;28;20214;-75
2023/12/30 11:50:02;;;;;;;23.55;4.55;;;;;;;;;;5008359;28;20187;-75
2023/12/30 11:52:28;;;;;;;17.77;3.88;;;;;;;;;;5004718;28;20205;-75
2023/12/30 11:54:53;;;;;;;25.45;5.03;;;;;;;;;;5024162;28;20195;-75
2023/12/30 11:57:19;;;;;;;19.17;4.57;;;;;;;;;;5008117;28;20183;-75
2023/12/30 11:59:44;;;;;;;13.93;3.53;;;;;;;;;;5003474;28;20195;-74
2023/12/30 12:02:13;;;;;;;15.07;4.70;;;;;;;;;;5008175;28;20190;-74
2023/12/30 12:04:39;;;;;;;21.13;4.30;;;;;;;;;;5001714;28;20189;-75
2023/12/30 12:07:05;;;;;;;18.50;3.50;;;;;;;;;;4990895;28;20596;-75
2023/12/30 12:09:31;;;;;;;22.23;4.13;;;;;;;;;;5007165;28;20198;-75
2023/12/30 12:11:56;;;;;;;15.48;4.30;;;;;;;;;;4990576;28;20466;-75
2023/12/30 12:14:22;;;;;;;12.13;3.40;;;;;;;;;;5009238;28;20198;-75
2023/12/30 12:16:47;;;;;;;17.95;4.43;;;;;;;;;;5009057;28;20187;-75
2023/12/30 12:19:15;;;;;;;17.10;3.97;;;;;;;;;;5024571;28;20214;-75
2023/12/30 12:21:40;;;;;;;21.13;4.47;;;;;;;;;;5015280;28;20190;-75
2023/12/30 12:24:06;;;;;;;21.75;4.63;;;;;;;;;;5028985;28;20204;-74
2023/12/30 12:26:31;;;;;;;18.63;4.65;;;;;;;;;;5009077;28;20260;-75
2023/12/30 12:28:58;;;;;;;17.95;5.32;;;;;;;;;;5011462;28;20178;-75
2023/12/30 12:31:30;;;;;;;26.35;5.72;;;;;;;;;;5009694;28;20565;-75
2023/12/30 12:33:55;;;;;;;21.58;5.95;;;;;;;;;;5008920;28;20260;-75
2023/12/30 12:36:21;;;;;;;23.85;5.60;;;;;;;;;;5011132;28;20198;-75
2023/12/30 12:38:47;;;;;;;22.38;6.60;;;;;;;;;;5008290;28;20211;-76
2023/12/30 12:41:13;;;;;;;17.95;5.15;;;;;;;;;;5009325;28;20222;-74
2023/12/30 12:43:38;;;;;;;22.02;4.65;;;;;;;;;;5026708;28;20216;-75
2023/12/30 12:46:04;;;;;;;17.63;5.97;;;;;;;;;;5007921;28;20204;-76
2023/12/30 12:48:29;;;;;;;24.60;6.72;;;;;;;;;;5010216;28;20267;-75
2023/12/30 12:50:55;;;;;;;17.48;4.72;;;;;;;;;;5027955;28;20384;-75
2023/12/30 12:53:22;;;;;;;21.05;4.63;;;;;;;;;;5010027;28;20212;-75
2023/12/30 12:55:48;;;;;;;19.23;8.23;;;;;;;;;;5003025;28;20312;-75
2023/12/30 12:58:13;;;;;;;26.65;7.15;;;;;;;;;;5027997;28;20280;-76
2023/12/30 13:00:38;;;;;;;19.70;5.00;;;;;;;;;;5008941;28;20221;-75
2023/12/30 13:03:04;;;;;;;26.95;8.27;;;;;;;;;;5027673;28;20205;-75
2023/12/30 13:05:30;;;;;;;24.30;4.70;;;;;;;;;;5013656;28;20189;-75
2023/12/30 13:07:56;;;;;;;21.25;6.32;;;;;;;;;;5008501;28;20611;-75
2023/12/30 13:12:48;;;;;;;16.58;4.90;;;;;;;;;;5028357;28;20605;-75
2023/12/30 13:15:18;;;;;;;20.63;5.25;;;;;;;;;;4993370;28;20192;-75
2023/12/30 13:17:46;;;;;;;27.75;5.10;;;;;;;;;;5014131;28;20182;-75
2023/12/30 13:20:12;;;;;;;19.55;4.78;;;;;;;;;;5003954;28;20223;-74
2023/12/30 13:22:37;;;;;;;17.27;5.07;;;;;;;;;;4992862;28;20195;-75
2023/12/30 13:25:05;;;;;;;25.83;6.70;;;;;;;;;;4990901;28;20191;-75
2023/12/30 13:27:31;;;;;;;24.95;6.05;;;;;;;;;;4989380;28;20326;-75
2023/12/30 13:29:57;;;;;;;27.25;7.15;;;;;;;;;;4985426;28;20282;-74
2023/12/30 13:32:25;;;;;;;30.52;7.18;;;;;;;;;;4999143;28;20684;-75
2023/12/30 13:34:53;;;;;;;30.42;9.50;;;;;;;;;;4999162;28;20278;-75
2023/12/30 13:37:19;;;;;;;17.65;6.45;;;;;;;;;;4982604;28;20198;-75
2023/12/30 13:39:44;;;;;;;22.98;6.28;;;;;;;;;;4986538;28;20459;-75
2023/12/30 13:42:13;;;;;;;19.30;5.95;;;;;;;;;;4986191;28;20661;-75
2023/12/30 13:44:43;;;;;;;29.70;6.05;;;;;;;;;;4992069;28;20195;-75
2023/12/30 13:50:25;;;;;;;20.65;6.10;;;;;;;;;;4954232;28;20207;-75
2023/12/30 13:52:53;;;;;;;17.85;5.85;;;;;;;;;;4986831;28;20380;-75
2023/12/30 13:55:20;;;;;;;20.05;5.82;;;;;;;;;;4986766;28;20216;-75
2023/12/30 13:57:51;;;;;;;23.35;6.80;;;;;;;;;;4989009;28;20214;-75
2023/12/30 14:00:18;;;;;;;21.35;5.95;;;;;;;;;;5003396;28;20614;-75
2023/12/30 14:02:45;;;;;;;23.52;6.53;;;;;;;;;;4994493;28;20186;-75
2023/12/30 14:05:28;;;;;;;19.65;5.47;;;;;;;;;;4992628;28;20795;-75
2023/12/30 14:07:54;;;;;;;25.67;6.28;;;;;;;;;;4986120;28;20207;-75
2023/12/30 14:10:20;;;;;;;19.65;5.65;;;;;;;;;;5000884;28;20535;-75
2023/12/30 14:12:46;;;;;;;24.75;5.65;;;;;;;;;;4987648;28;20187;-76
2023/12/30 14:15:13;;;;;;;29.48;8.48;;;;;;;;;;4995987;28;20297;-75
2023/12/30 14:17:40;;;;;;;28.15;10.63;;;;;;;;;;4988876;28;20600;-76
2023/12/30 14:20:06;;;;;;;26.02;6.57;;;;;;;;;;5000625;28;20452;-75
2023/12/30 14:22:33;;;;;;;22.92;7.10;;;;;;;;;;4991020;28;20194;-75
2023/12/30 14:24:58;;;;;;;23.70;6.40;;;;;;;;;;4995870;28;20200;-75
2023/12/30 14:27:25;;;;;;;32.38;8.75;;;;;;;;;;5006567;28;20218;-75
2023/12/30 14:29:54;;;;;;;23.35;6.78;;;;;;;;;;4987951;28;20191;-75
2023/12/30 14:32:19;;;;;;;20.30;6.70;;;;;;;;;;5002622;28;20186;-75
2023/12/30 14:34:45;;;;;;;27.05;7.43;;;;;;;;;;5007746;28;20294;-75